Time;durP1;ratioP1;P1;durP2;ratioP2;P2;SDS_P1;SDS_P2;PMS_P1;PMS_P2;Temp;Humidity;BMP_temperature;BMP_pressure;BME280_temperature;BME280_humidity;BME280_pressure;Samples;Min_cycle;Max_cycle;Signal;HPM_P1;HPM_P2
2022/06/27 00:00:44;;;;;;;;;;;;;;;25.29;47.76;100398.75;5360227;32;34900;-77
2022/06/27 00:03:46;;;;;;;;;;;;;;;26.47;45.00;100386.63;5370340;32;35561;-77
2022/06/27 00:06:48;;;;;;;;;;;;;;;25.87;46.03;100392.00;5367114;32;33919;-75
2022/06/27 00:09:50;;;;;;;;;;;;;;;25.76;46.26;100385.03;5359469;32;34734;-77
2022/06/27 00:12:52;;;;;;;;;;;;;;;25.28;47.56;100402.44;5374937;32;34823;-75
2022/06/27 00:15:54;;;;;;;;;;;;;;;24.73;48.88;100409.72;5334165;32;35872;-76
2022/06/27 00:18:55;;;;;;;;;;;;;;;24.76;48.71;100406.75;5374980;32;35558;-77
2022/06/27 00:21:57;;;;;;;;;;;;;;;25.21;47.34;100403.22;5356883;32;35327;-75
2022/06/27 00:24:59;;;;;;;;;;;;;;;25.48;46.62;100407.66;5369902;32;34960;-74
2022/06/27 00:28:01;;;;;;;;;;;;;;;25.57;46.18;100409.44;5366283;32;35276;-76
2022/06/27 00:31:03;;;;;;;;;;;;;;;25.12;47.42;100400.47;5361067;32;35344;-75
2022/06/27 00:34:05;;;;;;;;;;;;;;;25.32;47.03;100408.38;5374343;32;34444;-77
2022/06/27 00:37:07;;;;;;;;;;;;;;;25.78;45.53;100411.81;5359570;32;44772;-77
2022/06/27 00:40:09;;;;;;;;;;;;;;;25.35;45.96;100406.22;5375975;32;34926;-77
2022/06/27 00:43:11;;;;;;;;;;;;;;;25.10;46.81;100415.88;5358298;32;35671;-76
2022/06/27 00:46:13;;;;;;;;;;;;;;;25.07;47.01;100410.81;5368701;32;34984;-74
2022/06/27 00:49:15;;;;;;;;;;;;;;;24.88;47.96;100410.09;5366886;32;35516;-76
2022/06/27 00:52:17;;;;;;;;;;;;;;;24.75;48.60;100413.97;5357588;32;34355;-77
2022/06/27 00:55:19;;;;;;;;;;;;;;;25.31;47.25;100418.28;5374905;32;34606;-74
2022/06/27 00:58:21;;;;;;;;;;;;;;;24.94;48.35;100417.53;5359869;32;35465;-73
2022/06/27 01:01:24;;;;;;;;;;;;;;;24.89;48.52;100417.16;5376148;32;34815;-78
2022/06/27 01:04:27;;;;;;;;;;;;;;;25.06;48.15;100421.75;5358961;32;36673;-76
2022/06/27 01:07:29;;;;;;;;;;;;;;;24.54;49.94;100427.69;5364553;32;34749;-78
2022/06/27 01:10:31;;;;;;;;;;;;;;;24.61;49.54;100421.72;5358311;32;33975;-75
2022/06/27 01:13:33;;;;;;;;;;;;;;;24.32;50.25;100422.63;5357120;32;34775;-78
2022/06/27 01:16:35;;;;;;;;;;;;;;;24.17;50.77;100421.44;5348532;32;35534;-75
2022/06/27 01:19:37;;;;;;;;;;;;;;;24.61;49.29;100422.56;5356606;32;45904;-75
2022/06/27 01:22:39;;;;;;;;;;;;;;;24.12;50.86;100423.72;5374342;32;35495;-78
2022/06/27 01:25:42;;;;;;;;;;;;;;;24.26;50.44;100420.53;5361199;32;34824;-74
2022/06/27 01:28:44;;;;;;;;;;;;;;;24.81;49.12;100409.84;5364434;32;35554;-75
2022/06/27 01:31:46;;;;;;;;;;;;;;;24.88;48.42;100404.72;5368805;32;35789;-74
2022/06/27 01:34:48;;;;;;;;;;;;;;;24.41;50.02;100419.13;5359751;32;35399;-75
2022/06/27 01:37:50;;;;;;;;;;;;;;;24.08;50.93;100430.34;5377347;32;35927;-77
2022/06/27 01:40:52;;;;;;;;;;;;;;;23.67;52.20;100427.91;5361091;32;35689;-76
2022/06/27 01:43:53;;;;;;;;;;;;;;;24.03;50.86;100425.44;5378135;32;35027;-77
2022/06/27 01:47:00;;;;;;;;;;;;;;;23.86;51.46;100431.53;5362440;32;34531;-76
2022/06/27 01:50:03;;;;;;;;;;;;;;;24.03;50.92;100417.38;5363004;32;34966;-77
2022/06/27 01:53:05;;;;;;;;;;;;;;;24.16;50.82;100430.50;5371944;32;36257;-75
2022/06/27 01:56:07;;;;;;;;;;;;;;;23.92;51.88;100436.34;5359937;32;46876;-74
2022/06/27 01:59:10;;;;;;;;;;;;;;;23.75;52.24;100435.22;5375840;32;36147;-75
2022/06/27 02:02:11;;;;;;;;;;;;;;;23.96;51.54;100418.97;5357607;32;34864;-77
2022/06/27 02:05:14;;;;;;;;;;;;;;;23.42;53.25;100436.50;5375007;32;34843;-73
2022/06/27 02:08:16;;;;;;;;;;;;;;;23.93;52.02;100429.97;5360152;32;36283;-74
2022/06/27 02:11:18;;;;;;;;;;;;;;;23.58;53.25;100439.47;5365219;32;35632;-73
2022/06/27 02:14:20;;;;;;;;;;;;;;;23.81;52.71;100433.81;5358511;32;35086;-75
2022/06/27 02:17:22;;;;;;;;;;;;;;;23.65;53.13;100443.31;5348048;32;35076;-74
2022/06/27 02:20:24;;;;;;;;;;;;;;;23.52;53.41;100445.41;5374813;32;35341;-73
2022/06/27 02:23:26;;;;;;;;;;;;;;;23.38;53.88;100445.78;5360053;32;35030;-76
2022/06/27 02:26:28;;;;;;;;;;;;;;;23.73;53.04;100448.78;5375643;32;35038;-76
2022/06/27 02:29:30;;;;;;;;;;;;;;;23.85;52.68;100445.97;5359341;32;35344;-74
2022/06/27 02:32:33;;;;;;;;;;;;;;;23.83;52.70;100455.97;5363013;32;34408;-73
2022/06/27 02:35:35;;;;;;;;;;;;;;;23.48;53.71;100452.88;5376477;32;34720;-74
2022/06/27 02:38:37;;;;;;;;;;;;;;;23.69;53.63;100446.53;5359553;32;42937;-76
2022/06/27 02:41:40;;;;;;;;;;;;;;;24.25;51.53;100451.09;5376684;32;35352;-75
2022/06/27 02:44:42;;;;;;;;;;;;;;;23.80;53.05;100443.69;5358086;32;35439;-74
2022/06/27 02:47:44;;;;;;;;;;;;;;;24.14;51.99;100449.41;5376263;32;35206;-75
2022/06/27 02:50:46;;;;;;;;;;;;;;;24.51;51.06;100445.91;5361561;32;34914;-77
2022/06/27 02:54:07;;;;;;;;;;;;;;;23.82;52.81;100451.59;5359787;32;35587;-75
2022/06/27 02:57:15;;;;;;;;;;;;;;;24.17;52.24;100456.34;5377218;32;43069;-76
2022/06/27 03:00:17;;;;;;;;;;;;;;;23.09;55.64;100462.72;5359700;32;35310;-74
2022/06/27 03:03:18;;;;;;;;;;;;;;;24.25;51.98;100459.97;5373842;32;35359;-76
2022/06/27 03:06:21;;;;;;;;;;;;;;;24.20;51.85;100474.84;5361278;32;34376;-77
2022/06/27 03:09:22;;;;;;;;;;;;;;;23.86;53.13;100471.81;5364698;32;35286;-76
2022/06/27 03:12:25;;;;;;;;;;;;;;;23.72;53.77;100471.25;5369868;32;34931;-77
2022/06/27 03:15:27;;;;;;;;;;;;;;;23.52;54.57;100470.38;5336602;32;34728;-75
2022/06/27 03:18:29;;;;;;;;;;;;;;;23.48;54.43;100478.84;5373522;32;35079;-76
2022/06/27 03:21:31;;;;;;;;;;;;;;;23.89;53.09;100487.59;5359132;32;36839;-76
2022/06/27 03:24:33;;;;;;;;;;;;;;;24.34;51.31;100485.13;5375116;32;35476;-77
2022/06/27 03:27:35;;;;;;;;;;;;;;;23.33;53.97;100485.63;5361300;32;35301;-73
2022/06/27 03:30:37;;;;;;;;;;;;;;;23.19;54.83;100500.28;5365478;32;44611;-75
2022/06/27 03:33:39;;;;;;;;;;;;;;;23.58;53.17;100495.81;5366811;32;34342;-76
2022/06/27 03:36:43;;;;;;;;;;;;;;;23.68;52.71;100502.03;5356322;32;34616;-75
2022/06/27 03:39:45;;;;;;;;;;;;;;;23.59;53.25;100502.84;5372518;32;34608;-74
2022/06/27 03:42:47;;;;;;;;;;;;;;;24.15;51.43;100494.09;5360865;32;34343;-74
2022/06/27 03:45:49;;;;;;;;;;;;;;;24.13;51.45;100504.09;5378009;32;35421;-73
2022/06/27 03:52:12;;;;;;;;;;;;;;;23.74;52.53;100493.41;5361087;32;43338;-74
2022/06/27 03:55:14;;;;;;;;;;;;;;;24.11;51.44;100494.50;5378181;32;34438;-75
2022/06/27 03:58:16;;;;;;;;;;;;;;;24.68;49.87;100498.88;5358058;32;34783;-76
2022/06/27 04:01:18;;;;;;;;;;;;;;;24.74;49.45;100489.38;5375564;32;35068;-75
2022/06/27 04:04:20;;;;;;;;;;;;;;;24.53;50.25;100501.19;5358437;32;34807;-74
2022/06/27 04:07:22;;;;;;;;;;;;;;;24.87;49.53;100495.25;5370627;32;34768;-77
2022/06/27 04:10:24;;;;;;;;;;;;;;;25.17;48.87;100496.78;5362570;32;34302;-74
2022/06/27 04:13:26;;;;;;;;;;;;;;;24.12;51.54;100505.09;5355301;32;34768;-73
2022/06/27 04:16:28;;;;;;;;;;;;;;;24.71;50.03;100512.00;5350563;32;34357;-76
2022/06/27 04:19:30;;;;;;;;;;;;;;;24.97;49.57;100508.63;5358753;32;35843;-73
2022/06/27 04:22:32;;;;;;;;;;;;;;;24.87;49.70;100506.00;5375602;32;35059;-75
2022/06/27 04:25:34;;;;;;;;;;;;;;;24.89;49.50;100513.94;5359718;32;35321;-74
2022/06/27 04:28:40;;;;;;;;;;;;;;;25.59;47.65;100515.91;5370591;32;45098;-75
2022/06/27 04:31:42;;;;;;;;;;;;;;;25.23;48.51;100524.94;5363576;32;34784;-75
2022/06/27 04:34:44;;;;;;;;;;;;;;;26.27;45.97;100520.69;5360049;32;34387;-74
2022/06/27 04:37:48;;;;;;;;;;;;;;;26.29;45.78;100526.78;5374598;32;34950;-76
2022/06/27 04:40:50;;;;;;;;;;;;;;;26.94;44.28;100523.62;5359568;32;35120;-74
2022/06/27 04:43:53;;;;;;;;;;;;;;;26.69;44.40;100528.06;5376329;32;34226;-75
2022/06/27 04:46:55;;;;;;;;;;;;;;;26.23;45.46;100519.31;5360318;32;35740;-77
2022/06/27 04:49:58;;;;;;;;;;;;;;;28.00;41.21;100511.19;5370609;32;34403;-77
2022/06/27 04:53:01;;;;;;;;;;;;;;;26.71;44.05;100520.62;5365517;32;35633;-74
2022/06/27 04:56:03;;;;;;;;;;;;;;;27.40;42.25;100518.72;5360010;32;34955;-75
2022/06/27 04:59:05;;;;;;;;;;;;;;;28.54;40.21;100513.34;5373643;32;35819;-77
2022/06/27 05:02:08;;;;;;;;;;;;;;;28.91;39.62;100518.09;5358676;32;43157;-78
2022/06/27 05:05:10;;;;;;;;;;;;;;;28.69;39.15;100518.87;5374211;32;34998;-74
2022/06/27 05:08:12;;;;;;;;;;;;;;;28.86;38.97;100515.09;5355725;32;36278;-76
2022/06/27 05:11:14;;;;;;;;;;;;;;;28.68;39.58;100526.16;5369416;32;36414;-74
2022/06/27 05:14:16;;;;;;;;;;;;;;;29.35;38.14;100525.69;5353759;32;35426;-78
2022/06/27 05:17:20;;;;;;;;;;;;;;;29.90;36.95;100524.66;5346249;32;35080;-76
2022/06/27 05:20:23;;;;;;;;;;;;;;;30.00;36.90;100519.81;5374774;32;34580;-76
2022/06/27 05:23:24;;;;;;;;;;;;;;;30.62;35.58;100519.56;5359594;32;34853;-75
2022/06/27 05:26:26;;;;;;;;;;;;;;;29.58;37.65;100531.16;5377290;32;36271;-75
2022/06/27 05:29:28;;;;;;;;;;;;;;;29.35;38.36;100531.09;5350855;32;34870;-74
2022/06/27 05:32:31;;;;;;;;;;;;;;;30.40;36.27;100528.59;5366676;32;34207;-71
2022/06/27 05:35:33;;;;;;;;;;;;;;;29.67;37.66;100532.78;5371620;32;34339;-74
2022/06/27 05:38:36;;;;;;;;;;;;;;;29.34;38.39;100529.41;5359185;32;34137;-81
2022/06/27 05:41:38;;;;;;;;;;;;;;;29.62;38.04;100533.31;5378228;32;45231;-72
2022/06/27 05:44:40;;;;;;;;;;;;;;;29.03;38.98;100516.72;5361647;32;35750;-73
2022/06/27 05:47:43;;;;;;;;;;;;;;;29.01;39.20;100535.00;5370389;32;35447;-73
2022/06/27 05:50:47;;;;;;;;;;;;;;;30.39;36.23;100535.06;5362627;32;34463;-72
2022/06/27 05:53:50;;;;;;;;;;;;;;;29.27;38.17;100533.88;5365895;32;36679;-76
2022/06/27 05:56:52;;;;;;;;;;;;;;;30.41;36.45;100527.59;5365388;32;34436;-72
2022/06/27 05:59:55;;;;;;;;;;;;;;;30.96;35.13;100529.84;5361420;32;37937;-75
2022/06/27 06:03:00;;;;;;;;;;;;;;;29.67;37.39;100525.50;5378718;32;34357;-87
2022/06/27 06:06:04;;;;;;;;;;;;;;;30.93;35.13;100534.84;5367417;32;37349;-74
2022/06/27 06:09:06;;;;;;;;;;;;;;;31.06;34.89;100528.75;5361563;32;34019;-78
2022/06/27 06:12:09;;;;;;;;;;;;;;;31.46;34.23;100540.94;5358322;32;46817;-75
2022/06/27 06:15:17;;;;;;;;;;;;;;;32.95;31.74;100525.44;5342808;32;34045;-79
2022/06/27 06:18:23;;;;;;;;;;;;;;;31.43;34.54;100539.44;5375530;32;35592;-76
2022/06/27 06:21:24;;;;;;;;;;;;;;;31.56;34.08;100533.31;5363839;32;34293;-76
2022/06/27 06:24:27;;;;;;;;;;;;;;;32.07;33.16;100538.59;5372512;32;35116;-79
2022/06/27 06:27:35;;;;;;;;;;;;;;;32.75;31.91;100539.75;5365083;32;32210;-77
2022/06/27 06:30:40;;;;;;;;;;;;;;;33.39;31.27;100541.34;5370762;32;45294;-79
2022/06/27 06:33:42;;;;;;;;;;;;;;;33.37;31.00;100538.78;5366901;32;35367;-79
2022/06/27 06:36:44;;;;;;;;;;;;;;;33.08;31.88;100548.09;5366895;32;34259;-75
2022/06/27 06:39:46;;;;;;;;;;;;;;;34.08;29.89;100548.41;5379574;32;35923;-75
2022/06/27 06:42:48;;;;;;;;;;;;;;;34.83;28.59;100549.75;5364884;32;34351;-73
2022/06/27 06:45:50;;;;;;;;;;;;;;;34.61;29.36;100548.38;5379286;32;34211;-85
2022/06/27 06:49:02;;;;;;;;;;;;;;;35.33;27.94;100550.00;5370103;32;34214;-86
2022/06/27 06:52:04;;;;;;;;;;;;;;;33.18;31.25;100550.47;5365501;32;35040;-77
2022/06/27 06:55:06;;;;;;;;;;;;;;;32.95;31.65;100555.37;5381628;32;35097;-85
2022/06/27 06:58:09;;;;;;;;;;;;;;;32.82;31.69;100546.06;5366941;32;44808;-79
2022/06/27 07:01:11;;;;;;;;;;;;;;;32.35;33.00;100552.25;5380677;32;35604;-80
2022/06/27 07:04:14;;;;;;;;;;;;;;;32.18;33.21;100551.66;5364655;32;32627;-74
2022/06/27 07:07:18;;;;;;;;;;;;;;;34.79;28.79;100539.50;5379698;32;35489;-79
2022/06/27 07:10:22;;;;;;;;;;;;;;;33.36;31.11;100553.47;5370428;32;35561;-77
2022/06/27 07:13:25;;;;;;;;;;;;;;;33.55;30.82;100551.00;5361441;32;34215;-75
2022/06/27 07:16:27;;;;;;;;;;;;;;;33.52;30.75;100546.81;5355878;32;37363;-75
2022/06/27 07:19:30;;;;;;;;;;;;;;;34.88;28.46;100540.94;5364701;32;35374;-76
2022/06/27 07:22:34;;;;;;;;;;;;;;;35.05;28.37;100544.06;5377600;32;34308;-80
2022/06/27 07:25:36;;;;;;;;;;;;;;;34.78;28.48;100525.03;5368374;32;35396;-79
2022/06/27 07:28:38;;;;;;;;;;;;;;;36.52;26.11;100530.03;5348588;32;868812;-73
2022/06/27 07:31:41;;;;;;;;;;;;;;;35.06;28.53;100541.09;5366621;32;34249;-81
2022/06/27 07:34:43;;;;;;;;;;;;;;;35.34;28.05;100538.03;5361524;32;37030;-76
2022/06/27 07:37:48;;;;;;;;;;;;;;;35.50;27.75;100545.75;5376058;32;34671;-76
2022/06/27 07:40:50;;;;;;;;;;;;;;;35.18;28.13;100533.91;5366641;32;34001;-73
2022/06/27 07:43:54;;;;;;;;;;;;;;;35.13;28.36;100546.53;5373061;32;34247;-74
2022/06/27 07:46:57;;;;;;;;;;;;;;;38.03;23.88;100533.72;5366001;32;35887;-74
2022/06/27 07:49:59;;;;;;;;;;;;;;;39.07;22.12;100539.41;5381205;32;34765;-83
2022/06/27 07:53:17;;;;;;;;;;;;;;;38.58;22.07;100516.94;5368426;32;34397;-72
2022/06/27 07:56:20;;;;;;;;;;;;;;;38.06;22.43;100529.66;5365396;32;35288;-72
2022/06/27 07:59:42;;;;;;;;;;;;;;;38.20;22.92;100531.13;5373804;32;44746;-72
2022/06/27 08:02:44;;;;;;;;;;;;;;;39.58;20.96;100540.41;5365315;32;35875;-70
2022/06/27 08:05:47;;;;;;;;;;;;;;;39.47;20.89;100533.88;5385099;32;35408;-80
2022/06/27 08:08:53;;;;;;;;;;;;;;;38.41;22.31;100541.53;5359318;32;35583;-82
2022/06/27 08:11:59;;;;;;;;;;;;;;;39.44;21.02;100539.88;5365314;32;35370;-72
2022/06/27 08:15:01;;;;;;;;;;;;;;;36.61;24.91;100536.88;5359041;32;34354;-71
2022/06/27 08:18:04;;;;;;;;;;;;;;;38.99;21.91;100543.38;5358828;32;33951;-76
2022/06/27 08:21:08;;;;;;;;;;;;;;;36.77;25.02;100545.53;5372973;32;33855;-75
2022/06/27 08:24:17;;;;;;;;;;;;;;;37.19;24.57;100548.44;5369850;32;46302;-67
2022/06/27 08:27:20;;;;;;;;;;;;;;;39.08;22.09;100545.72;5371286;32;34654;-75
2022/06/27 08:30:25;;;;;;;;;;;;;;;36.26;25.33;100549.41;5376286;32;35525;-89
2022/06/27 08:33:33;;;;;;;;;;;;;;;38.98;21.85;100540.88;5357102;32;35433;-86
2022/06/27 08:36:36;;;;;;;;;;;;;;;39.95;20.39;100545.47;5382562;32;34532;-74
2022/06/27 08:39:38;;;;;;;;;;;;;;;38.16;22.56;100536.25;5366172;32;44487;-75
2022/06/27 08:42:40;;;;;;;;;;;;;;;39.06;21.62;100540.47;5386667;32;34212;-86
2022/06/27 08:45:47;;;;;;;;;;;;;;;41.28;19.09;100534.41;5384453;32;34865;-75
2022/06/27 08:48:50;;;;;;;;;;;;;;;41.68;18.27;100536.81;5363725;32;35802;-74
2022/06/27 08:51:52;;;;;;;;;;;;;;;40.63;19.24;100541.59;5371568;32;34220;-75
2022/06/27 08:54:56;;;;;;;;;;;;;;;39.40;20.85;100537.84;5373075;32;36758;-74
2022/06/27 08:58:04;;;;;;;;;;;;;;;40.97;18.81;100531.34;5376071;32;34665;-69
2022/06/27 09:01:07;;;;;;;;;;;;;;;40.72;19.21;100537.31;5364995;32;34178;-74
2022/06/27 09:04:09;;;;;;;;;;;;;;;38.39;21.39;100537.38;5360250;32;46469;-69
2022/06/27 09:07:12;;;;;;;;;;;;;;;38.90;21.14;100528.34;5355269;32;34295;-69
2022/06/27 09:10:26;;;;;;;;;;;;;;;39.54;20.46;100537.31;5372057;32;35546;-71
2022/06/27 09:13:32;;;;;;;;;;;;;;;41.52;18.30;100527.53;5375899;32;35568;-69
2022/06/27 09:16:35;;;;;;;;;;;;;;;39.87;20.40;100532.09;5347683;32;34207;-82
2022/06/27 09:19:43;;;;;;;;;;;;;;;38.77;21.47;100525.03;5378484;32;46558;-81
2022/06/27 09:22:45;;;;;;;;;;;;;;;39.79;20.65;100525.13;5364078;32;34398;-81
2022/06/27 09:25:47;;;;;;;;;;;;;;;41.87;18.34;100518.78;5375514;32;35405;-80
2022/06/27 09:28:50;;;;;;;;;;;;;;;41.01;18.92;100506.84;5369173;32;34916;-80
2022/06/27 09:31:53;;;;;;;;;;;;;;;40.17;19.69;100510.63;5378595;32;34289;-81
2022/06/27 09:34:56;;;;;;;;;;;;;;;39.97;19.92;100511.09;5374791;32;34292;-80
2022/06/27 09:38:00;;;;;;;;;;;;;;;40.08;20.08;100500.31;5361001;32;35388;-80
2022/06/27 09:41:06;;;;;;;;;;;;;;;40.65;19.52;100502.78;5378568;32;34262;-84
2022/06/27 09:44:10;;;;;;;;;;;;;;;42.88;17.17;100501.16;5364649;32;46577;-85
2022/06/27 09:47:16;;;;;;;;;;;;;;;42.42;17.14;100508.41;5361339;32;35288;-77
2022/06/27 09:50:19;;;;;;;;;;;;;;;42.48;17.36;100504.56;5372680;32;34348;-79
2022/06/27 09:53:26;;;;;;;;;;;;;;;39.76;20.19;100500.88;5362159;32;34432;-75
2022/06/27 09:56:30;;;;;;;;;;;;;;;41.22;18.77;100500.47;5374264;32;34407;-80
2022/06/27 09:59:32;;;;;;;;;;;;;;;41.29;18.31;100492.00;5356354;32;34268;-75
2022/06/27 10:02:34;;;;;;;;;;;;;;;44.06;14.54;100499.44;5377002;32;35530;-78
2022/06/27 10:05:37;;;;;;;;;;;;;;;43.43;15.40;100490.56;5368361;32;46756;-72
2022/06/27 10:08:46;;;;;;;;;;;;;;;39.44;19.83;100495.06;5365977;32;35080;-81
2022/06/27 10:11:48;;;;;;;;;;;;;;;41.86;17.53;100496.94;5376386;32;35385;-75
2022/06/27 10:15:08;;;;;;;;;;;;;;;43.10;16.44;100491.88;5346469;32;34336;-75
2022/06/27 10:18:13;;;;;;;;;;;;;;;39.99;19.60;100486.09;5369230;32;44615;-69
2022/06/27 10:21:25;;;;;;;;;;;;;;;43.60;15.67;100480.03;5357821;32;34345;-70
2022/06/27 10:24:29;;;;;;;;;;;;;;;43.11;15.86;100474.19;5365738;32;33656;-71
2022/06/27 10:27:31;;;;;;;;;;;;;;;42.85;16.18;100456.66;5371935;32;36087;-71
2022/06/27 10:30:37;;;;;;;;;;;;;;;42.99;15.48;100468.91;5346534;32;35421;-79
2022/06/27 10:33:39;;;;;;;;;;;;;;;44.07;14.50;100462.31;5363073;32;44898;-77
2022/06/27 10:36:41;;;;;;;;;;;;;;;41.86;16.49;100461.91;5351092;32;35878;-77
2022/06/27 10:39:45;;;;;;;;;;;;;;;42.52;16.03;100457.91;5381775;32;34390;-83
2022/06/27 10:43:04;;;;;;;;;;;;;;;42.25;16.27;100447.81;5379734;32;34428;-86
2022/06/27 10:46:09;;;;;;;;;;;;;;;43.50;14.54;100453.22;5364458;32;35407;-71
2022/06/27 10:49:18;;;;;;;;;;;;;;;42.53;16.16;100443.81;5373664;32;44590;-69
2022/06/27 10:52:24;;;;;;;;;;;;;;;42.67;16.25;100446.94;5363287;32;34506;-74
2022/06/27 10:55:29;;;;;;;;;;;;;;;39.94;19.14;100450.25;5378491;32;34352;-80
2022/06/27 10:58:31;;;;;;;;;;;;;;;43.33;15.72;100440.72;5370057;32;36682;-81
2022/06/27 11:01:33;;;;;;;;;;;;;;;45.38;13.73;100437.91;5366730;32;35674;-71
2022/06/27 11:04:36;;;;;;;;;;;;;;;44.22;14.38;100439.31;5370120;32;35343;-71
2022/06/27 11:07:38;;;;;;;;;;;;;;;42.57;16.02;100433.06;5354450;32;45188;-72
2022/06/27 11:10:41;;;;;;;;;;;;;;;42.67;16.02;100444.16;5378653;32;34110;-73
2022/06/27 11:13:47;;;;;;;;;;;;;;;40.92;17.91;100442.25;5361384;32;35428;-73
2022/06/27 11:16:49;;;;;;;;;;;;;;;39.73;19.43;100429.84;5358382;32;34491;-76
2022/06/27 11:20:06;;;;;;;;;;;;;;;39.07;20.28;100425.91;5371720;32;34904;-71
2022/06/27 11:23:28;;;;;;;;;;;;;;;40.65;18.57;100407.22;5363464;32;34798;-72
2022/06/27 11:26:31;;;;;;;;;;;;;;;39.92;19.05;100422.12;5379851;32;34517;-73
2022/06/27 11:32:55;;;;;;;;;;;;;;;38.00;21.29;100416.25;5363107;32;34539;-76
2022/06/27 11:36:00;;;;;;;;;;;;;;;40.93;18.04;100413.59;5371490;32;34258;-70
2022/06/27 11:39:02;;;;;;;;;;;;;;;38.12;20.86;100414.28;5363061;32;34359;-68
2022/06/27 11:42:10;;;;;;;;;;;;;;;37.41;21.40;100409.84;5377621;32;35057;-79
2022/06/27 11:45:13;;;;;;;;;;;;;;;38.97;19.81;100413.66;5364729;32;43419;-70
2022/06/27 11:48:16;;;;;;;;;;;;;;;41.76;17.04;100403.06;5375290;32;35790;-71
2022/06/27 11:51:21;;;;;;;;;;;;;;;41.96;16.99;100391.31;5368233;32;35443;-71
2022/06/27 11:54:23;;;;;;;;;;;;;;;39.59;19.34;100393.56;5366346;32;34472;-77
2022/06/27 11:57:25;;;;;;;;;;;;;;;41.39;17.58;100385.38;5369417;32;35132;-80
2022/06/27 12:00:31;;;;;;;;;;;;;;;43.39;15.66;100393.47;5368962;32;35977;-73
2022/06/27 12:03:33;;;;;;;;;;;;;;;44.44;14.23;100386.31;5382753;32;35387;-69
2022/06/27 12:06:41;;;;;;;;;;;;;;;42.76;15.62;100390.03;5361787;32;35457;-71
2022/06/27 12:09:50;;;;;;;;;;;;;;;39.09;19.63;100393.50;5378207;32;44466;-71
2022/06/27 12:12:52;;;;;;;;;;;;;;;39.40;19.17;100387.47;5362529;32;34255;-91
2022/06/27 12:15:57;;;;;;;;;;;;;;;38.69;20.16;100381.47;5347496;32;35389;-75
2022/06/27 12:19:08;;;;;;;;;;;;;;;38.12;21.02;100384.12;5372163;32;35388;-73
2022/06/27 12:22:18;;;;;;;;;;;;;;;37.48;21.95;100374.09;5360808;32;44857;-71
2022/06/27 12:25:40;;;;;;;;;;;;;;;35.93;24.11;100382.87;5376646;32;48723;-68
2022/06/27 12:28:42;;;;;;;;;;;;;;;35.97;23.48;100382.19;5370762;32;34311;-71
2022/06/27 12:31:45;;;;;;;;;;;;;;;36.29;22.89;100376.56;5366073;32;35924;-85
2022/06/27 12:34:49;;;;;;;;;;;;;;;36.72;22.58;100372.91;5381310;32;35121;-78
2022/06/27 12:37:51;;;;;;;;;;;;;;;35.63;24.45;100374.53;5368787;32;34445;-83
2022/06/27 12:41:11;;;;;;;;;;;;;;;35.88;23.77;100364.38;5378562;32;37647;-88
2022/06/27 12:44:13;;;;;;;;;;;;;;;35.87;23.22;100370.91;5365657;32;44442;-79
2022/06/27 12:47:15;;;;;;;;;;;;;;;36.06;23.39;100374.50;5369158;32;34607;-74
2022/06/27 12:50:18;;;;;;;;;;;;;;;36.51;22.46;100364.09;5375748;32;34871;-74
2022/06/27 12:53:20;;;;;;;;;;;;;;;36.10;22.85;100363.97;5359145;32;34227;-72
2022/06/27 12:56:22;;;;;;;;;;;;;;;35.44;23.97;100349.03;5375802;32;34329;-71
2022/06/27 12:59:24;;;;;;;;;;;;;;;35.09;24.75;100354.94;5363342;32;34422;-77
2022/06/27 13:02:27;;;;;;;;;;;;;;;35.70;23.18;100353.44;5374413;32;33480;-74
2022/06/27 13:05:29;;;;;;;;;;;;;;;35.92;23.19;100365.63;5365970;32;35245;-74
2022/06/27 13:08:31;;;;;;;;;;;;;;;35.41;23.97;100354.91;5367115;32;35993;-69
2022/06/27 13:11:33;;;;;;;;;;;;;;;35.69;23.08;100352.59;5373352;32;34284;-69
2022/06/27 13:14:35;;;;;;;;;;;;;;;35.96;22.59;100352.34;5351435;32;34277;-67
2022/06/27 13:17:37;;;;;;;;;;;;;;;36.16;21.99;100352.13;5363675;32;44931;-70
2022/06/27 13:20:39;;;;;;;;;;;;;;;36.16;22.04;100349.37;5366942;32;34937;-67
2022/06/27 13:23:49;;;;;;;;;;;;;;;36.65;21.70;100336.53;5376476;32;34759;-71
2022/06/27 13:27:11;;;;;;;;;;;;;;;36.61;21.36;100331.56;5363213;32;45144;-71
2022/06/27 13:30:14;;;;;;;;;;;;;;;36.55;21.41;100345.31;5365275;32;34614;-70
2022/06/27 13:33:16;;;;;;;;;;;;;;;35.39;22.78;100346.94;5378500;32;34346;-75
2022/06/27 13:36:18;;;;;;;;;;;;;;;35.90;22.70;100334.91;5367497;32;34346;-77
2022/06/27 13:39:21;;;;;;;;;;;;;;;36.28;22.25;100331.13;5376104;32;34606;-76
2022/06/27 13:42:23;;;;;;;;;;;;;;;35.93;22.41;100322.69;5364099;32;36088;-79
2022/06/27 13:45:25;;;;;;;;;;;;;;;36.45;22.24;100339.56;5373209;32;34192;-73
2022/06/27 13:48:28;;;;;;;;;;;;;;;35.92;23.13;100334.72;5367917;32;34791;-80
2022/06/27 13:51:30;;;;;;;;;;;;;;;37.23;21.08;100333.16;5366069;32;35336;-79
2022/06/27 13:54:33;;;;;;;;;;;;;;;36.50;21.87;100334.22;5383467;32;34351;-70
2022/06/27 13:57:35;;;;;;;;;;;;;;;36.77;21.51;100331.94;5364991;32;34359;-77
2022/06/27 14:00:57;;;;;;;;;;;;;;;36.42;21.54;100329.91;5378098;32;34692;-79
2022/06/27 14:03:59;;;;;;;;;;;;;;;35.46;22.66;100330.50;5371396;32;34521;-85
2022/06/27 14:10:23;;;;;;;;;;;;;;;36.79;21.00;100316.16;5383039;32;33164;-82
2022/06/27 14:13:25;;;;;;;;;;;;;;;36.84;20.74;100311.63;5373718;32;34410;-86
2022/06/27 14:16:29;;;;;;;;;;;;;;;36.89;21.07;100313.69;5367738;32;34330;-87
2022/06/27 14:19:32;;;;;;;;;;;;;;;36.96;21.44;100325.37;5377874;32;34287;-87
2022/06/27 14:22:34;;;;;;;;;;;;;;;36.59;21.51;100314.53;5380518;32;33318;-85
2022/06/27 14:25:37;;;;;;;;;;;;;;;36.02;22.79;100313.16;5376376;32;42689;-78
2022/06/27 14:28:39;;;;;;;;;;;;;;;36.17;21.51;100312.75;5364696;32;34471;-84
2022/06/27 14:31:41;;;;;;;;;;;;;;;35.40;23.19;100312.25;5380536;32;34360;-82
2022/06/27 14:34:43;;;;;;;;;;;;;;;36.22;21.68;100318.37;5369716;32;34385;-83
2022/06/27 14:37:45;;;;;;;;;;;;;;;36.12;21.59;100307.94;5382858;32;35622;-89
2022/06/27 14:40:47;;;;;;;;;;;;;;;36.21;21.38;100309.34;5367366;32;34462;-83
2022/06/27 14:43:49;;;;;;;;;;;;;;;36.18;21.17;100301.56;5378508;32;34417;-88
2022/06/27 14:46:54;;;;;;;;;;;;;;;35.94;21.34;100300.63;5374072;32;34240;-86
2022/06/27 14:49:56;;;;;;;;;;;;;;;35.33;21.93;100298.66;5380048;32;36364;-78
2022/06/27 14:53:01;;;;;;;;;;;;;;;35.07;22.49;100293.41;5384966;32;34270;-83
2022/06/27 14:56:03;;;;;;;;;;;;;;;35.82;21.39;100291.47;5370019;32;34532;-80
2022/06/27 14:59:05;;;;;;;;;;;;;;;35.18;22.57;100285.34;5376659;32;34252;-88
2022/06/27 15:02:07;;;;;;;;;;;;;;;36.16;21.15;100283.72;5370896;32;43396;-88
2022/06/27 15:05:09;;;;;;;;;;;;;;;35.66;20.98;100289.31;5371360;32;34719;-78
2022/06/27 15:08:16;;;;;;;;;;;;;;;35.47;21.20;100283.81;5378618;32;35454;-78
2022/06/27 15:11:36;;;;;;;;;;;;;;;35.79;21.40;100279.06;5368858;32;35403;-82
2022/06/27 15:14:38;;;;;;;;;;;;;;;36.00;21.42;100282.44;5369731;32;45534;-78
2022/06/27 15:17:41;;;;;;;;;;;;;;;36.46;20.69;100279.12;5362993;32;35506;-78
2022/06/27 15:20:43;;;;;;;;;;;;;;;36.49;20.61;100270.44;5373311;32;35353;-84
2022/06/27 15:23:45;;;;;;;;;;;;;;;35.67;21.19;100261.75;5373881;32;35108;-83
2022/06/27 15:26:47;;;;;;;;;;;;;;;36.19;21.13;100264.94;5364142;32;36364;-78
2022/06/27 15:29:49;;;;;;;;;;;;;;;36.54;20.40;100259.66;5366991;32;34567;-88
2022/06/27 15:32:51;;;;;;;;;;;;;;;37.00;20.11;100262.75;5371215;32;34918;-89
2022/06/27 15:35:54;;;;;;;;;;;;;;;36.91;20.26;100277.87;5384694;32;34632;-89
2022/06/27 15:38:57;;;;;;;;;;;;;;;36.77;20.20;100271.72;5378966;32;35106;-90
2022/06/27 15:41:59;;;;;;;;;;;;;;;36.66;20.09;100261.59;5376836;32;36765;-88
2022/06/27 15:45:05;;;;;;;;;;;;;;;36.58;20.38;100262.72;5377839;32;34187;-79
2022/06/27 15:48:07;;;;;;;;;;;;;;;35.77;21.41;100269.44;5368122;32;44919;-78
2022/06/27 15:51:09;;;;;;;;;;;;;;;36.35;21.10;100263.47;5384655;32;35796;-91